Time;durP1;ratioP1;P1;durP2;ratioP2;P2;SDS_P1;SDS_P2;PMS_P1;PMS_P2;Temp;Humidity;BMP_temperature;BMP_pressure;BME280_temperature;BME280_humidity;BME280_pressure;Samples;Min_cycle;Max_cycle;Signal;HPM_P1;HPM_P2
2021/01/13 00:00:58;;;;;;;4.93;3.30;;;2.50;99.90;;;;;;4975095;28;20485;-75
2021/01/13 00:03:26;;;;;;;3.37;2.80;;;2.50;99.90;;;;;;4974129;28;20495;-74
2021/01/13 00:05:53;;;;;;;2.33;2.23;;;2.50;99.90;;;;;;4975011;28;20515;-72
2021/01/13 00:08:20;;;;;;;4.20;3.90;;;2.60;99.90;;;;;;4961893;28;20850;-74
2021/01/13 00:10:47;;;;;;;21.87;3.23;;;2.50;99.90;;;;;;4976729;28;20477;-72
2021/01/13 00:13:13;;;;;;;6.03;3.33;;;2.40;99.90;;;;;;4972096;28;20465;-71
2021/01/13 00:15:40;;;;;;;8.93;3.40;;;2.40;99.90;;;;;;4969008;28;21068;-73
2021/01/13 00:18:07;;;;;;;25.83;4.00;;;2.30;99.90;;;;;;4973978;28;20500;-72
2021/01/13 00:20:34;;;;;;;6.63;3.10;;;2.40;99.90;;;;;;4973005;28;21038;-71
2021/01/13 00:23:01;;;;;;;6.33;2.57;;;2.40;99.90;;;;;;4969810;28;20576;-71
2021/01/13 00:25:27;;;;;;;16.37;3.20;;;2.40;99.90;;;;;;4973565;28;20539;-73
2021/01/13 00:27:54;;;;;;;3.50;2.47;;;2.40;99.90;;;;;;4975525;28;20582;-71
2021/01/13 00:30:21;;;;;;;2.83;2.50;;;2.40;99.90;;;;;;4971328;28;20937;-74
2021/01/13 00:32:48;;;;;;;3.80;3.40;;;2.40;99.90;;;;;;4970003;28;21367;-72
2021/01/13 00:35:17;;;;;;;12.03;2.23;;;2.20;99.90;;;;;;4976016;28;20593;-73
2021/01/13 00:37:44;;;;;;;6.83;4.27;;;2.30;99.90;;;;;;4973412;28;21000;-72
2021/01/13 00:40:12;;;;;;;4.40;2.10;;;2.40;99.90;;;;;;4974319;28;20573;-72
2021/01/13 00:42:45;;;;;;;5.33;2.30;;;2.40;99.90;;;;;;4971550;28;20687;-72
2021/01/13 00:45:13;;;;;;;2.30;1.70;;;2.30;99.90;;;;;;4976194;28;20585;-74
2021/01/13 00:47:41;;;;;;;4.63;4.20;;;2.30;99.90;;;;;;4974119;28;20811;-71
2021/01/13 00:50:09;;;;;;;38.10;3.70;;;2.30;99.90;;;;;;4966797;28;20524;-72
2021/01/13 00:52:36;;;;;;;4.37;3.33;;;2.30;99.90;;;;;;4975274;28;20481;-73
2021/01/13 00:55:03;;;;;;;4.67;2.77;;;2.30;99.90;;;;;;4971534;28;22995;-73
2021/01/13 00:57:33;;;;;;;5.00;2.37;;;2.30;99.90;;;;;;4973513;28;20527;-71
2021/01/13 00:59:59;;;;;;;3.40;3.10;;;2.30;99.90;;;;;;4972026;28;20525;-74
2021/01/13 01:02:26;;;;;;;2.63;2.07;;;2.30;99.90;;;;;;4972353;28;21240;-74
2021/01/13 01:04:53;;;;;;;2.97;2.70;;;2.30;99.90;;;;;;4967387;28;21007;-74
2021/01/13 01:07:19;;;;;;;14.43;4.40;;;2.30;99.90;;;;;;4971351;28;20480;-73
2021/01/13 01:09:47;;;;;;;4.17;3.47;;;2.20;99.90;;;;;;4973793;28;21206;-73
2021/01/13 01:12:13;;;;;;;13.30;4.63;;;2.30;99.90;;;;;;4967320;28;20506;-73
2021/01/13 01:14:41;;;;;;;3.70;3.03;;;2.20;99.90;;;;;;4976290;28;20521;-73
2021/01/13 01:17:10;;;;;;;7.67;4.00;;;2.10;99.90;;;;;;4971684;28;20438;-72
2021/01/13 01:19:37;;;;;;;3.00;2.10;;;2.20;99.90;;;;;;4969623;28;20958;-72
2021/01/13 01:22:04;;;;;;;2.43;2.13;;;2.10;99.90;;;;;;4974066;28;20545;-72
2021/01/13 01:24:31;;;;;;;5.33;2.70;;;2.10;99.90;;;;;;4974369;28;20531;-75
2021/01/13 01:26:58;;;;;;;2.27;1.97;;;2.10;99.90;;;;;;4976627;28;20453;-72
2021/01/13 01:29:25;;;;;;;4.10;1.63;;;2.20;99.90;;;;;;4968393;28;20533;-71
2021/01/13 01:31:53;;;;;;;4.33;2.63;;;2.30;99.90;;;;;;4972729;28;20462;-72
2021/01/13 01:34:19;;;;;;;3.97;2.60;;;2.30;99.90;;;;;;4970585;28;20625;-72
2021/01/13 01:36:46;;;;;;;2.30;2.20;;;2.20;99.90;;;;;;4968113;28;21434;-73
2021/01/13 01:39:13;;;;;;;7.10;4.07;;;2.30;99.90;;;;;;4969706;28;20460;-73
2021/01/13 01:41:43;;;;;;;2.03;1.83;;;2.30;99.90;;;;;;4971487;28;20498;-72
2021/01/13 01:44:11;;;;;;;11.57;4.63;;;2.20;99.90;;;;;;4969187;28;20562;-74
2021/01/13 01:46:39;;;;;;;3.07;2.07;;;2.10;99.90;;;;;;4974547;28;20877;-73
2021/01/13 01:49:06;;;;;;;2.90;2.70;;;2.10;99.90;;;;;;4972595;28;20501;-72
2021/01/13 01:51:38;;;;;;;6.27;3.40;;;2.10;99.90;;;;;;4975344;28;20463;-73
2021/01/13 01:54:13;;;;;;;6.37;3.97;;;2.10;99.90;;;;;;4969611;28;20452;-71
2021/01/13 01:56:41;;;;;;;8.60;4.43;;;2.10;99.90;;;;;;4975691;28;20478;-71
2021/01/13 01:59:08;;;;;;;3.33;3.13;;;2.10;99.90;;;;;;4971481;28;20531;-72
2021/01/13 02:01:38;;;;;;;4.20;3.30;;;2.10;99.90;;;;;;4976954;28;20454;-73
2021/01/13 02:04:13;;;;;;;19.57;3.10;;;2.10;99.90;;;;;;4970706;28;20454;-73
2021/01/13 02:07:05;;;;;;;3.90;2.30;;;2.10;99.90;;;;;;4971414;28;20548;-72
2021/01/13 02:09:33;;;;;;;3.47;2.77;;;2.00;99.90;;;;;;4970227;28;20584;-72
2021/01/13 02:12:00;;;;;;;5.93;4.97;;;2.00;99.90;;;;;;4977784;28;20450;-72
2021/01/13 02:14:27;;;;;;;5.30;4.23;;;2.00;99.90;;;;;;4971821;28;20499;-72
2021/01/13 02:16:56;;;;;;;8.93;3.57;;;2.00;99.90;;;;;;4968835;28;20553;-71
2021/01/13 02:20:03;;;;;;;2.80;2.60;;;2.10;99.90;;;;;;4973299;28;20502;-73
2021/01/13 02:22:38;;;;;;;3.90;3.00;;;2.00;99.90;;;;;;4971376;28;20488;-73
2021/01/13 02:25:47;;;;;;;33.07;4.73;;;2.00;99.90;;;;;;4976367;28;20587;-72
2021/01/13 02:28:20;;;;;;;3.30;3.00;;;2.00;99.90;;;;;;4982312;28;20485;-72
2021/01/13 02:31:27;;;;;;;4.50;3.63;;;2.00;99.90;;;;;;4974036;28;20512;-71
2021/01/13 02:34:00;;;;;;;3.87;3.37;;;2.00;99.90;;;;;;4975659;28;20483;-73
2021/01/13 02:36:52;;;;;;;3.77;3.47;;;2.00;99.90;;;;;;4979568;28;20492;-70
2021/01/13 02:39:19;;;;;;;4.03;2.87;;;2.00;99.90;;;;;;4980165;28;20564;-71
2021/01/13 02:41:47;;;;;;;5.03;3.50;;;2.00;99.90;;;;;;4976509;28;20549;-72
2021/01/13 02:44:28;;;;;;;5.50;4.27;;;2.00;99.90;;;;;;4976455;28;20477;-72
2021/01/13 02:47:07;;;;;;;2.93;2.67;;;2.00;99.90;;;;;;4976241;28;20934;-72
2021/01/13 02:49:39;;;;;;;17.20;3.77;;;1.90;99.90;;;;;;4979290;28;20459;-72
2021/01/13 02:52:17;;;;;;;6.87;4.47;;;1.90;99.90;;;;;;4973747;28;20437;-72
2021/01/13 02:54:45;;;;;;;1.80;1.30;;;1.90;99.90;;;;;;4973483;28;20464;-71
2021/01/13 02:57:19;;;;;;;4.00;3.23;;;1.90;99.90;;;;;;4973820;28;20521;-70
2021/01/13 02:59:48;;;;;;;4.37;3.97;;;1.90;99.90;;;;;;4976060;28;20949;-71
2021/01/13 03:02:15;;;;;;;4.43;4.03;;;1.90;99.90;;;;;;4978797;28;20513;-71
2021/01/13 03:04:43;;;;;;;2.80;2.13;;;1.90;99.90;;;;;;4972327;28;20498;-73
2021/01/13 03:07:13;;;;;;;15.33;4.30;;;2.00;99.90;;;;;;4974930;28;20999;-70
2021/01/13 03:09:43;;;;;;;4.07;3.67;;;2.00;99.90;;;;;;4975934;28;20537;-72
2021/01/13 03:12:18;;;;;;;7.00;5.30;;;2.00;99.90;;;;;;4975965;28;20453;-73
2021/01/13 03:14:51;;;;;;;6.67;3.20;;;2.10;99.90;;;;;;4975102;28;20531;-72
2021/01/13 03:17:41;;;;;;;9.93;3.33;;;2.00;99.90;;;;;;4977090;28;20456;-72
2021/01/13 03:20:17;;;;;;;2.40;2.20;;;2.00;99.90;;;;;;4975936;28;20502;-72
2021/01/13 03:22:50;;;;;;;4.17;3.23;;;2.00;99.90;;;;;;4973202;28;20921;-71
2021/01/13 03:25:19;;;;;;;1.17;1.07;;;2.10;99.90;;;;;;4974615;28;20479;-72
2021/01/13 03:27:47;;;;;;;3.13;2.80;;;2.10;99.90;;;;;;4973137;28;20549;-72
2021/01/13 03:30:17;;;;;;;6.27;5.67;;;2.00;99.90;;;;;;4973918;28;20437;-72
2021/01/13 03:33:04;;;;;;;3.33;3.03;;;2.00;99.90;;;;;;4972477;28;20462;-71
2021/01/13 03:35:38;;;;;;;3.67;2.90;;;2.00;99.90;;;;;;4974631;28;20564;-74
2021/01/13 03:38:12;;;;;;;11.00;3.27;;;2.10;99.90;;;;;;4977363;28;20586;-72
2021/01/13 03:40:39;;;;;;;7.70;5.50;;;2.10;99.90;;;;;;4978927;28;20727;-72
2021/01/13 03:43:17;;;;;;;3.77;3.47;;;2.20;99.90;;;;;;4970144;28;20477;-72
2021/01/13 03:45:48;;;;;;;7.50;6.87;;;2.30;99.90;;;;;;4969669;28;20573;-72
2021/01/13 03:48:46;;;;;;;3.97;3.67;;;2.40;99.90;;;;;;4976175;28;20437;-71
2021/01/13 03:51:53;;;;;;;3.80;1.97;;;2.40;99.90;;;;;;4950087;28;20816;-72
2021/01/13 03:54:25;;;;;;;4.13;2.37;;;2.50;99.90;;;;;;4919479;29;20518;-70
2021/01/13 03:57:00;;;;;;;5.40;3.87;;;2.50;99.90;;;;;;4966174;28;20437;-72
2021/01/13 03:59:44;;;;;;;4.33;3.90;;;2.40;99.90;;;;;;4980206;28;20429;-71
2021/01/13 04:02:17;;;;;;;4.00;3.50;;;2.40;99.90;;;;;;4975560;28;20558;-71
2021/01/13 04:05:00;;;;;;;11.83;4.80;;;2.40;99.90;;;;;;4972037;28;20464;-71
2021/01/13 04:07:37;;;;;;;8.43;5.70;;;2.40;99.90;;;;;;4976174;28;20453;-72
2021/01/13 04:10:10;;;;;;;3.27;2.90;;;2.40;99.90;;;;;;4972258;28;20433;-72
2021/01/13 04:12:52;;;;;;;5.17;4.00;;;2.40;99.90;;;;;;4972978;28;20823;-73
2021/01/13 04:15:19;;;;;;;3.23;2.93;;;2.40;99.90;;;;;;4972426;28;20508;-73
2021/01/13 04:17:47;;;;;;;6.70;4.20;;;2.40;99.90;;;;;;4978519;28;20472;-73
2021/01/13 04:20:15;;;;;;;1.77;1.37;;;2.40;99.90;;;;;;4974351;28;21013;-71
2021/01/13 04:22:42;;;;;;;5.63;4.93;;;2.30;99.90;;;;;;4977254;28;20535;-72
2021/01/13 04:25:09;;;;;;;5.07;3.57;;;2.20;99.90;;;;;;4973883;28;20483;-71
2021/01/13 04:27:38;;;;;;;3.20;2.90;;;2.10;99.90;;;;;;4976190;28;20563;-71
2021/01/13 04:30:06;;;;;;;2.50;2.30;;;2.10;99.90;;;;;;4970669;28;20933;-70
2021/01/13 04:32:33;;;;;;;5.93;2.93;;;2.10;99.90;;;;;;4976354;28;20464;-72
2021/01/13 04:35:01;;;;;;;7.20;4.03;;;2.10;99.90;;;;;;4976767;28;20825;-71
2021/01/13 04:37:31;;;;;;;2.73;2.50;;;2.10;99.90;;;;;;4969631;28;21061;-72
2021/01/13 04:40:02;;;;;;;3.93;3.40;;;2.10;99.90;;;;;;4976666;28;20476;-74
2021/01/13 04:42:30;;;;;;;6.53;4.50;;;2.20;99.90;;;;;;4974099;28;20456;-70
2021/01/13 04:45:05;;;;;;;4.57;4.17;;;2.10;99.90;;;;;;4978792;28;20486;-71
2021/01/13 04:47:49;;;;;;;6.40;3.37;;;2.10;99.90;;;;;;4976576;28;20427;-72
2021/01/13 04:50:19;;;;;;;4.43;3.60;;;2.00;99.90;;;;;;4968229;28;20542;-72
2021/01/13 04:52:48;;;;;;;9.83;2.73;;;2.00;99.90;;;;;;4976275;28;20520;-72
2021/01/13 04:55:24;;;;;;;6.13;4.10;;;2.00;99.90;;;;;;4978703;28;20456;-71
2021/01/13 04:58:22;;;;;;;5.30;3.27;;;2.00;99.90;;;;;;4983707;28;20442;-71
2021/01/13 05:01:10;;;;;;;9.00;4.40;;;2.00;99.90;;;;;;4976903;28;20865;-70
2021/01/13 05:03:44;;;;;;;1.90;1.47;;;2.00;99.90;;;;;;4964811;28;20548;-74
2021/01/13 05:06:46;;;;;;;12.13;3.90;;;2.00;99.90;;;;;;4976317;28;20489;-72
2021/01/13 05:09:15;;;;;;;4.30;2.93;;;2.00;99.90;;;;;;4971507;28;20464;-71
2021/01/13 05:11:43;;;;;;;5.40;3.00;;;1.90;99.90;;;;;;4972462;28;20535;-71
2021/01/13 05:14:10;;;;;;;2.40;1.80;;;1.90;99.90;;;;;;4968593;28;20937;-72
2021/01/13 05:17:20;;;;;;;3.23;1.43;;;2.00;99.90;;;;;;4971819;28;20532;-71
2021/01/13 05:20:28;;;;;;;4.27;3.97;;;2.10;99.90;;;;;;4892392;29;20472;-71
2021/01/13 05:22:56;;;;;;;3.03;2.83;;;2.10;99.90;;;;;;4965899;28;20517;-72
2021/01/13 05:25:46;;;;;;;16.20;3.83;;;2.10;99.90;;;;;;4970394;28;21166;-70
2021/01/13 05:28:20;;;;;;;15.00;3.83;;;2.20;99.90;;;;;;4971453;28;21049;-72
2021/01/13 05:30:49;;;;;;;3.90;3.37;;;2.20;99.90;;;;;;4969875;28;20451;-72
2021/01/13 05:33:17;;;;;;;6.40;4.20;;;2.10;99.90;;;;;;4968213;28;20538;-71
2021/01/13 05:35:47;;;;;;;3.90;2.50;;;2.20;99.90;;;;;;4973895;28;20492;-70
2021/01/13 05:38:33;;;;;;;17.93;4.17;;;2.20;99.90;;;;;;4979015;28;20433;-72
2021/01/13 05:41:08;;;;;;;7.40;5.30;;;2.20;99.90;;;;;;4974829;28;20490;-69
2021/01/13 05:43:39;;;;;;;2.03;1.90;;;2.20;99.90;;;;;;4970159;28;20528;-73
2021/01/13 05:46:10;;;;;;;2.73;2.50;;;2.20;99.90;;;;;;4971336;28;20583;-71
2021/01/13 05:48:41;;;;;;;3.40;1.60;;;2.30;99.90;;;;;;4962906;28;20509;-72
2021/01/13 05:51:09;;;;;;;5.70;2.93;;;2.30;99.90;;;;;;4969581;28;20860;-71
2021/01/13 05:53:37;;;;;;;2.50;2.17;;;2.40;99.90;;;;;;4968165;28;20436;-72
2021/01/13 05:56:06;;;;;;;12.03;5.80;;;2.50;99.90;;;;;;4972718;28;20479;-73
2021/01/13 05:58:33;;;;;;;12.23;3.67;;;2.50;99.90;;;;;;4978866;28;20877;-71
2021/01/13 06:01:22;;;;;;;3.50;3.20;;;2.60;99.90;;;;;;4969206;28;20893;-72
2021/01/13 06:03:50;;;;;;;6.83;2.30;;;2.60;99.90;;;;;;4967633;28;20560;-71
2021/01/13 06:06:20;;;;;;;13.23;3.00;;;2.70;99.90;;;;;;4973810;28;20565;-71
2021/01/13 06:08:48;;;;;;;5.90;4.53;;;2.60;99.90;;;;;;4981465;28;20574;-72
2021/01/13 06:11:17;;;;;;;3.53;3.23;;;2.70;99.90;;;;;;4978628;28;20906;-72
2021/01/13 06:13:44;;;;;;;5.20;2.67;;;2.70;99.90;;;;;;4978888;28;20541;-72
2021/01/13 06:16:11;;;;;;;8.33;3.70;;;2.80;99.90;;;;;;4978435;28;20468;-71
2021/01/13 06:18:43;;;;;;;1.97;1.87;;;2.80;99.90;;;;;;4980223;28;20497;-72
2021/01/13 06:21:11;;;;;;;1.80;1.70;;;2.80;99.90;;;;;;4974963;28;20993;-71
2021/01/13 06:23:48;;;;;;;3.07;2.80;;;2.90;99.90;;;;;;4977184;28;20478;-72
2021/01/13 06:26:17;;;;;;;1.70;1.60;;;2.90;99.90;;;;;;4979064;28;20551;-71
2021/01/13 06:29:25;;;;;;;2.90;1.90;;;2.90;99.90;;;;;;4970826;28;20559;-71
2021/01/13 06:31:57;;;;;;;3.63;2.90;;;3.00;99.90;;;;;;4974601;28;20510;-72
2021/01/13 06:34:27;;;;;;;1.40;1.07;;;3.00;99.90;;;;;;4976831;28;20925;-72
2021/01/13 06:37:15;;;;;;;6.13;1.73;;;2.90;99.90;;;;;;4977218;28;20533;-70
2021/01/13 06:39:42;;;;;;;3.93;3.53;;;2.90;99.90;;;;;;4973423;28;20521;-71
2021/01/13 06:42:10;;;;;;;1.63;1.53;;;2.90;99.90;;;;;;4976014;28;20463;-72
2021/01/13 06:44:43;;;;;;;2.90;2.70;;;2.90;99.90;;;;;;4977629;28;20491;-70
2021/01/13 06:47:10;;;;;;;2.10;1.50;;;2.90;99.90;;;;;;4975082;28;20500;-72
2021/01/13 06:49:37;;;;;;;2.23;1.97;;;2.90;99.90;;;;;;4976249;28;20513;-71
2021/01/13 06:52:06;;;;;;;1.80;1.70;;;2.90;99.90;;;;;;4971591;28;20646;-72
2021/01/13 06:54:33;;;;;;;1.40;1.30;;;2.90;99.90;;;;;;4976325;28;20494;-71
2021/01/13 06:57:01;;;;;;;1.80;1.67;;;2.90;99.90;;;;;;4975992;28;20519;-72
2021/01/13 06:59:38;;;;;;;8.20;4.03;;;2.90;99.90;;;;;;4981170;28;20467;-71
2021/01/13 07:02:04;;;;;;;23.23;4.20;;;2.80;99.90;;;;;;4977015;28;20486;-71
2021/01/13 07:04:44;;;;;;;2.63;2.43;;;2.90;99.90;;;;;;4971588;28;20489;-72
2021/01/13 07:07:12;;;;;;;3.60;2.57;;;2.90;99.90;;;;;;4981982;28;20520;-71
2021/01/13 07:09:41;;;;;;;14.73;4.80;;;2.80;99.90;;;;;;4981194;28;20512;-71
2021/01/13 07:12:10;;;;;;;1.20;0.90;;;2.80;99.90;;;;;;4990034;28;20972;-71
2021/01/13 07:14:40;;;;;;;3.87;1.50;;;2.80;99.90;;;;;;4979656;28;20546;-71
2021/01/13 07:17:13;;;;;;;5.60;4.97;;;2.80;99.90;;;;;;4981179;28;20561;-70
2021/01/13 07:19:44;;;;;;;4.83;4.40;;;2.80;99.90;;;;;;4983839;28;20548;-71
2021/01/13 07:22:12;;;;;;;7.13;4.50;;;2.80;99.90;;;;;;4986042;28;20437;-72
2021/01/13 07:24:41;;;;;;;4.80;3.00;;;2.80;99.90;;;;;;4980693;28;20539;-71
2021/01/13 07:27:08;;;;;;;37.73;5.60;;;2.80;99.90;;;;;;4981554;28;20538;-72
2021/01/13 07:29:34;;;;;;;10.57;3.17;;;2.80;99.90;;;;;;4979827;28;20490;-71
2021/01/13 07:32:04;;;;;;;8.40;2.70;;;2.80;99.90;;;;;;4980385;28;20544;-71
2021/01/13 07:34:33;;;;;;;4.33;3.93;;;2.80;99.90;;;;;;4976786;28;20501;-71
2021/01/13 07:37:01;;;;;;;6.97;4.07;;;2.80;99.90;;;;;;4977693;28;20485;-68
2021/01/13 07:40:11;;;;;;;11.03;4.83;;;2.90;99.90;;;;;;4979582;28;20541;-70
2021/01/13 07:42:40;;;;;;;6.17;2.70;;;2.90;99.90;;;;;;4967406;28;20461;-71
2021/01/13 07:45:08;;;;;;;14.90;4.97;;;2.80;99.90;;;;;;4978260;28;20573;-70
2021/01/13 07:48:15;;;;;;;5.13;3.07;;;2.80;99.90;;;;;;4976687;28;20469;-70
2021/01/13 07:50:43;;;;;;;37.47;4.33;;;2.90;99.90;;;;;;4980124;28;20893;-71
2021/01/13 07:53:21;;;;;;;12.77;7.00;;;2.90;99.90;;;;;;4984267;28;20454;-71
2021/01/13 07:55:56;;;;;;;21.67;8.50;;;2.90;99.90;;;;;;4979644;28;20930;-69
2021/01/13 07:58:26;;;;;;;14.07;6.23;;;3.00;99.90;;;;;;4979496;28;20520;-70
2021/01/13 08:00:59;;;;;;;11.43;2.77;;;2.90;99.90;;;;;;4977821;28;20510;-69
2021/01/13 08:04:22;;;;;;;9.17;6.00;;;3.00;99.90;;;;;;4976697;28;20597;-70
2021/01/13 08:06:53;;;;;;;7.10;6.33;;;3.20;99.90;;;;;;4974590;28;20478;-70
2021/01/13 08:09:20;;;;;;;6.70;4.40;;;3.20;99.90;;;;;;4983741;28;20547;-71
2021/01/13 08:12:35;;;;;;;9.57;6.10;;;3.30;99.90;;;;;;4983338;28;20825;-72
2021/01/13 08:15:44;;;;;;;4.87;4.43;;;3.40;99.90;;;;;;4978361;28;20628;-70
2021/01/13 08:18:56;;;;;;;4.33;2.63;;;3.30;99.90;;;;;;4980360;28;20490;-71
2021/01/13 08:21:43;;;;;;;11.47;3.83;;;3.50;99.90;;;;;;4980444;28;20583;-70
2021/01/13 08:24:30;;;;;;;5.23;4.73;;;3.50;99.90;;;;;;4986937;28;20492;-71
2021/01/13 08:26:59;;;;;;;10.67;6.53;;;3.60;99.90;;;;;;4984141;28;20607;-71
2021/01/13 08:29:33;;;;;;;11.53;6.60;;;3.60;99.90;;;;;;4976504;28;20553;-71
2021/01/13 08:32:05;;;;;;;4.03;3.37;;;3.70;99.90;;;;;;4977889;28;20933;-71
2021/01/13 08:34:37;;;;;;;8.30;5.70;;;3.80;99.90;;;;;;4985018;28;20461;-70
2021/01/13 08:37:04;;;;;;;15.13;6.80;;;3.90;99.90;;;;;;4981983;28;20919;-72
2021/01/13 08:39:33;;;;;;;11.63;6.73;;;3.80;99.90;;;;;;4979060;28;20433;-69
2021/01/13 08:42:20;;;;;;;5.30;4.10;;;3.80;99.90;;;;;;4980275;28;21508;-71
2021/01/13 08:44:47;;;;;;;19.70;5.80;;;3.80;99.90;;;;;;4981849;28;20493;-71
2021/01/13 08:47:14;;;;;;;13.60;7.20;;;3.90;99.90;;;;;;4980628;28;20458;-71
2021/01/13 08:49:42;;;;;;;5.50;4.00;;;4.00;99.90;;;;;;4976494;28;20889;-72
2021/01/13 08:52:28;;;;;;;10.80;7.40;;;4.20;99.90;;;;;;4980990;28;20991;-70
2021/01/13 08:55:15;;;;;;;16.70;4.50;;;4.20;99.90;;;;;;4974788;28;20483;-71
2021/01/13 08:57:56;;;;;;;13.07;4.13;;;4.20;99.90;;;;;;4980866;28;20864;-72
2021/01/13 09:00:24;;;;;;;6.43;5.70;;;4.20;99.90;;;;;;4985835;28;20459;-72
2021/01/13 09:03:07;;;;;;;8.70;5.93;;;4.30;99.90;;;;;;4978781;28;20462;-70
2021/01/13 09:05:36;;;;;;;10.53;5.17;;;4.60;99.90;;;;;;4979249;28;20486;-72
2021/01/13 09:08:05;;;;;;;6.47;5.10;;;4.60;99.90;;;;;;4979597;28;20466;-71
2021/01/13 09:10:53;;;;;;;6.17;4.53;;;4.60;99.90;;;;;;4978118;28;20549;-71
2021/01/13 09:13:40;;;;;;;14.10;4.77;;;4.60;99.90;;;;;;4969229;28;20470;-72
2021/01/13 09:16:35;;;;;;;7.40;4.77;;;4.40;99.90;;;;;;4981087;28;20487;-71
2021/01/13 09:19:08;;;;;;;13.60;6.00;;;4.40;99.90;;;;;;4981089;28;20498;-71
2021/01/13 09:21:37;;;;;;;6.33;5.70;;;4.40;99.90;;;;;;4980743;28;20469;-71
2021/01/13 09:24:06;;;;;;;5.07;4.67;;;4.30;99.90;;;;;;4975521;28;20460;-71
2021/01/13 09:26:35;;;;;;;6.87;4.13;;;4.30;99.90;;;;;;4984463;28;20515;-71
2021/01/13 09:29:07;;;;;;;8.03;6.17;;;4.30;99.90;;;;;;4979804;28;20475;-71
2021/01/13 09:31:35;;;;;;;17.37;5.53;;;4.40;99.90;;;;;;4978902;28;20472;-72
2021/01/13 09:34:02;;;;;;;3.67;3.37;;;4.70;99.90;;;;;;4976322;28;20864;-72
2021/01/13 09:36:31;;;;;;;8.30;5.93;;;4.70;99.90;;;;;;4975237;28;20522;-72
2021/01/13 09:39:16;;;;;;;7.70;3.60;;;4.90;99.90;;;;;;4980125;28;20436;-72
2021/01/13 09:41:55;;;;;;;6.67;5.33;;;4.90;99.90;;;;;;4984186;28;20651;-72
2021/01/13 09:44:29;;;;;;;12.10;6.87;;;4.90;99.90;;;;;;4979323;28;20909;-73
2021/01/13 09:46:56;;;;;;;6.00;2.87;;;4.90;99.90;;;;;;4974996;28;20465;-72
2021/01/13 09:49:23;;;;;;;10.13;5.93;;;4.70;99.90;;;;;;4976298;28;20965;-71
2021/01/13 09:51:50;;;;;;;6.27;5.67;;;4.80;99.90;;;;;;4976210;28;20989;-72
2021/01/13 09:54:22;;;;;;;7.90;3.97;;;5.00;99.90;;;;;;4980736;28;20457;-72
2021/01/13 09:56:54;;;;;;;9.17;6.73;;;5.00;99.90;;;;;;4978681;28;20850;-70
2021/01/13 09:59:25;;;;;;;6.50;5.47;;;4.90;99.90;;;;;;4976317;28;20531;-69
2021/01/13 10:01:57;;;;;;;6.30;4.80;;;4.60;99.90;;;;;;4973832;28;20458;-71
2021/01/13 10:04:24;;;;;;;9.30;6.33;;;4.50;99.90;;;;;;4973022;28;20483;-72
2021/01/13 10:07:01;;;;;;;6.60;4.80;;;4.40;99.90;;;;;;4974204;28;20487;-71
2021/01/13 10:09:29;;;;;;;7.97;4.50;;;4.40;99.90;;;;;;4977475;28;20434;-70
2021/01/13 10:11:56;;;;;;;2.63;2.43;;;4.40;99.90;;;;;;4981005;28;20449;-71
2021/01/13 10:14:23;;;;;;;6.40;3.33;;;4.40;99.90;;;;;;4976828;28;20478;-71
2021/01/13 10:16:50;;;;;;;13.03;7.10;;;4.30;99.90;;;;;;4979549;28;20514;-72
2021/01/13 10:19:19;;;;;;;9.80;6.10;;;4.30;99.90;;;;;;4974689;28;20493;-71
2021/01/13 10:21:48;;;;;;;10.23;7.30;;;4.40;99.90;;;;;;4976201;28;20517;-68
2021/01/13 10:24:16;;;;;;;23.23;7.47;;;4.50;99.90;;;;;;4976081;28;20519;-72
2021/01/13 10:26:45;;;;;;;10.13;6.07;;;4.50;99.90;;;;;;4982703;28;21500;-70
2021/01/13 10:29:13;;;;;;;8.13;3.67;;;4.40;99.90;;;;;;4974365;28;20440;-71
2021/01/13 10:31:41;;;;;;;3.30;2.90;;;4.40;99.90;;;;;;4978573;28;20971;-72
2021/01/13 10:34:12;;;;;;;4.20;3.87;;;4.50;99.90;;;;;;4979838;28;20482;-72
2021/01/13 10:36:43;;;;;;;14.33;5.90;;;4.70;99.90;;;;;;4977575;28;20502;-71
2021/01/13 10:39:15;;;;;;;6.67;5.23;;;4.90;99.90;;;;;;4981567;28;20433;-72
2021/01/13 10:41:46;;;;;;;13.30;7.30;;;5.00;99.90;;;;;;4983556;28;20461;-70
2021/01/13 10:44:16;;;;;;;11.67;5.60;;;5.20;99.90;;;;;;4976736;28;20510;-71
2021/01/13 10:46:48;;;;;;;12.23;7.83;;;5.40;99.90;;;;;;4980651;28;20486;-70
2021/01/13 10:49:23;;;;;;;5.50;5.00;;;5.50;99.90;;;;;;4980078;28;20451;-70
2021/01/13 10:51:52;;;;;;;6.77;5.43;;;5.70;99.90;;;;;;4981695;28;20468;-71
2021/01/13 10:54:20;;;;;;;8.13;4.50;;;6.00;99.90;;;;;;4980023;28;20461;-70
2021/01/13 10:56:52;;;;;;;5.80;5.30;;;6.00;99.90;;;;;;4980809;28;20517;-71
2021/01/13 10:59:19;;;;;;;21.53;8.50;;;5.90;99.90;;;;;;4980445;28;20461;-71
2021/01/13 11:01:47;;;;;;;6.73;5.90;;;5.90;99.90;;;;;;4979613;28;20458;-69
2021/01/13 11:04:31;;;;;;;9.30;4.40;;;5.70;99.90;;;;;;4981959;28;21052;-72
2021/01/13 11:07:03;;;;;;;11.17;6.83;;;5.50;99.90;;;;;;4980378;28;20514;-71
2021/01/13 11:09:30;;;;;;;16.63;6.17;;;5.30;99.90;;;;;;4986999;28;20465;-72
2021/01/13 11:11:58;;;;;;;9.17;6.20;;;5.10;99.90;;;;;;4978750;28;20553;-71
2021/01/13 11:14:33;;;;;;;14.13;4.83;;;5.30;99.90;;;;;;4985239;28;20492;-72
2021/01/13 11:17:01;;;;;;;12.67;8.47;;;5.50;99.90;;;;;;4981598;28;21060;-70
2021/01/13 11:19:28;;;;;;;8.93;6.93;;;5.60;99.90;;;;;;4980784;28;20497;-72
2021/01/13 11:21:56;;;;;;;3.80;3.50;;;5.50;99.90;;;;;;4982778;28;20513;-70
2021/01/13 11:24:35;;;;;;;8.17;4.77;;;5.40;99.90;;;;;;4986744;28;20478;-71
2021/01/13 11:27:05;;;;;;;9.43;6.53;;;5.40;99.90;;;;;;4981385;28;20437;-71
2021/01/13 11:29:34;;;;;;;5.93;4.60;;;5.20;99.90;;;;;;4979095;28;20447;-70
2021/01/13 11:32:02;;;;;;;9.17;6.10;;;5.20;99.90;;;;;;4985235;28;20497;-72
2021/01/13 11:34:29;;;;;;;15.20;8.23;;;5.20;99.90;;;;;;4977732;28;20440;-71
2021/01/13 11:37:16;;;;;;;14.73;8.17;;;5.20;99.90;;;;;;4982734;28;20986;-70
2021/01/13 11:39:49;;;;;;;8.20;6.33;;;5.10;99.90;;;;;;4976400;28;20501;-68
2021/01/13 11:42:27;;;;;;;7.17;5.53;;;5.00;99.90;;;;;;4976481;28;20542;-71
2021/01/13 11:45:06;;;;;;;8.03;7.40;;;5.00;99.90;;;;;;4977381;28;20540;-71
2021/01/13 11:47:35;;;;;;;16.60;9.33;;;5.10;99.90;;;;;;4982128;28;20551;-72
2021/01/13 11:50:11;;;;;;;13.63;8.50;;;5.00;99.90;;;;;;4979868;28;20433;-71
2021/01/13 11:52:42;;;;;;;13.60;8.43;;;5.00;99.90;;;;;;4980581;28;20495;-71
2021/01/13 11:55:10;;;;;;;11.23;6.10;;;5.20;99.90;;;;;;4982763;28;20492;-71
2021/01/13 11:57:37;;;;;;;13.57;8.93;;;5.30;99.90;;;;;;4981362;28;20974;-71
2021/01/13 12:00:16;;;;;;;5.43;4.90;;;5.30;99.90;;;;;;4973965;28;20440;-71
2021/01/13 12:02:48;;;;;;;10.30;7.90;;;5.20;99.90;;;;;;4977805;28;20542;-72
2021/01/13 12:05:29;;;;;;;8.33;7.03;;;5.00;99.90;;;;;;4980586;28;20530;-71
2021/01/13 12:08:03;;;;;;;12.77;8.53;;;5.00;99.90;;;;;;4981668;28;20470;-71
2021/01/13 12:10:35;;;;;;;6.47;5.67;;;5.00;99.90;;;;;;4980383;28;20460;-71
2021/01/13 12:13:17;;;;;;;10.63;8.37;;;5.00;99.90;;;;;;4986828;28;20516;-71
2021/01/13 12:15:52;;;;;;;17.43;8.73;;;5.00;99.90;;;;;;4981852;28;20511;-71
2021/01/13 12:18:21;;;;;;;5.90;5.40;;;4.90;99.90;;;;;;4983426;28;20466;-71
2021/01/13 12:20:48;;;;;;;7.30;4.50;;;4.90;99.90;;;;;;4980085;28;20846;-72
2021/01/13 12:23:20;;;;;;;9.77;4.53;;;4.90;99.90;;;;;;4973716;28;20894;-71
2021/01/13 12:25:47;;;;;;;10.83;8.70;;;5.00;99.90;;;;;;4978678;28;20464;-70
2021/01/13 12:28:15;;;;;;;7.87;5.70;;;5.30;99.90;;;;;;4978163;28;20467;-72
2021/01/13 12:30:56;;;;;;;13.07;6.87;;;5.70;99.90;;;;;;4979728;28;20470;-72
2021/01/13 12:33:22;;;;;;;6.73;6.00;;;6.20;99.90;;;;;;4976179;28;20458;-69
2021/01/13 12:35:49;;;;;;;3.87;3.53;;;6.30;99.90;;;;;;4977755;28;20490;-72
2021/01/13 12:38:16;;;;;;;10.40;6.47;;;6.20;99.90;;;;;;4976854;28;20466;-72
2021/01/13 12:40:43;;;;;;;6.17;5.63;;;5.90;99.90;;;;;;4983596;28;20501;-73
2021/01/13 12:43:18;;;;;;;4.63;4.23;;;5.70;99.90;;;;;;4975864;28;20975;-72
2021/01/13 12:45:46;;;;;;;13.43;5.93;;;5.60;99.90;;;;;;4975518;28;20545;-71
2021/01/13 12:48:13;;;;;;;9.73;5.20;;;5.40;99.90;;;;;;4979581;28;20440;-71
2021/01/13 12:50:40;;;;;;;4.20;3.37;;;5.30;99.90;;;;;;4974655;28;20498;-73
2021/01/13 12:53:07;;;;;;;5.20;3.93;;;5.10;99.90;;;;;;4978244;28;20506;-72
2021/01/13 12:55:34;;;;;;;8.13;4.93;;;5.10;99.90;;;;;;4983283;28;20478;-71
2021/01/13 12:58:00;;;;;;;2.27;2.07;;;5.10;99.90;;;;;;4976953;28;20462;-71
2021/01/13 13:00:28;;;;;;;8.93;5.70;;;5.30;99.90;;;;;;4982298;28;20473;-69
2021/01/13 13:02:55;;;;;;;7.83;5.83;;;5.30;99.90;;;;;;4980394;28;20604;-70
2021/01/13 13:05:21;;;;;;;5.70;4.00;;;5.40;99.90;;;;;;4960632;28;20576;-70
2021/01/13 13:07:49;;;;;;;12.97;5.80;;;5.40;99.90;;;;;;4979827;28;20470;-70
2021/01/13 13:10:16;;;;;;;7.97;4.00;;;5.50;99.90;;;;;;4978476;28;20467;-70
2021/01/13 13:12:42;;;;;;;2.40;2.20;;;5.80;99.90;;;;;;4978003;28;20453;-73
2021/01/13 13:15:09;;;;;;;9.43;3.60;;;6.10;99.90;;;;;;4973675;28;21050;-71
2021/01/13 13:17:41;;;;;;;8.67;6.07;;;5.90;99.90;;;;;;4981490;28;20447;-70
2021/01/13 13:20:08;;;;;;;4.10;3.53;;;6.00;99.90;;;;;;4981043;28;20459;-71
2021/01/13 13:22:35;;;;;;;10.50;6.57;;;6.10;99.90;;;;;;4981067;28;20871;-69
2021/01/13 13:25:03;;;;;;;6.97;5.90;;;6.10;99.90;;;;;;4969555;28;20927;-70